Pagina principale
METAR-TAF:

METAR-TAF

Aeroporti :

Rivas, Nicaragua

latitudine: 11-25N, longitudine: 085-50W, altezza: 53 m

Osservazione

Il bollettino è stato emesso 3 ore e 23 minuti fa, alle 23:00 UTC
Vento calmo
Temperature 26°C
Umidità 94%
Pressione 1009 hPa
Visibilità: 6000 m
Nubi sparse ad un'altezza di 1000 ft, Cumulonembo.
Nubi sparse ad un'altezza di 7000 ft
pioggia debole,

METAR: MNRS 202300Z 00000KT 6000 -RA SCT010CB SCT070 26/25 Q1009 CB ALRED

Ora: 20:23 (02:23 UTC)


TAF: mancante

Osservazioni e previsioni meteorologiche di più di 4000 aeroporti (messaggi METAR e TAF).

Le stazioni disponibili sono rappresentate dai dischi gialli e rossi sulla carta.

Puntare il mouse per vedere il nome della stazione.

Clicca sopra per visualizzare le osservazioni e previsioni meteorologiche.

Per cambiare la mappa : fare clic sui pulsanti verdi con una croce nera per ingrandire, il pulsante verde con un trattino per diminuire, o sulla freccia verde per le mappe adiacenti.


METAR-TAF: